Time;durP1;ratioP1;P1;durP2;ratioP2;P2;SDS_P1;SDS_P2;PMS_P1;PMS_P2;Temp;Humidity;BMP_temperature;BMP_pressure;BME280_temperature;BME280_humidity;BME280_pressure;Samples;Min_cycle;Max_cycle;Signal;HPM_P1;HPM_P2
2021/04/17 00:01:46;;;;;;;11.93;10.73;;;9.20;77.20;;;;;;5032397;28;20415;-76
2021/04/17 00:04:13;;;;;;;11.13;10.03;;;9.20;76.80;;;;;;5032909;28;20447;-76
2021/04/17 00:06:39;;;;;;;11.77;10.57;;;9.20;76.90;;;;;;5030578;28;20468;-76
2021/04/17 00:09:14;;;;;;;10.70;9.60;;;9.20;76.50;;;;;;5047505;28;20431;-76
2021/04/17 00:11:41;;;;;;;11.77;10.70;;;9.20;76.20;;;;;;5032624;28;20432;-76
2021/04/17 00:14:20;;;;;;;10.87;9.77;;;9.20;77.00;;;;;;5032046;28;20416;-76
2021/04/17 00:16:46;;;;;;;10.23;9.23;;;9.20;77.00;;;;;;5031858;28;20420;-76
2021/04/17 00:19:12;;;;;;;11.00;9.77;;;9.20;77.00;;;;;;5028821;28;20429;-76
2021/04/17 00:21:38;;;;;;;10.90;9.80;;;9.20;76.30;;;;;;5012888;28;20266;-76
2021/04/17 00:24:04;;;;;;;11.67;10.50;;;9.20;75.70;;;;;;5018435;28;20504;-76
2021/04/17 00:26:30;;;;;;;11.17;9.83;;;9.10;76.70;;;;;;5032173;28;20681;-76
2021/04/17 00:28:57;;;;;;;11.27;10.17;;;9.10;76.40;;;;;;5028472;28;20442;-76
2021/04/17 00:31:22;;;;;;;11.20;10.03;;;9.10;74.70;;;;;;5031329;28;20436;-76
2021/04/17 00:33:48;;;;;;;10.57;9.53;;;9.10;76.00;;;;;;5031754;28;20484;-77
2021/04/17 00:36:14;;;;;;;12.53;9.13;;;9.10;76.60;;;;;;5020451;28;20229;-76
2021/04/17 00:38:39;;;;;;;10.50;9.43;;;9.10;75.90;;;;;;5029799;28;20178;-76
2021/04/17 00:41:05;;;;;;;11.37;10.17;;;9.10;76.10;;;;;;5031166;28;20182;-76
2021/04/17 00:43:31;;;;;;;11.20;9.80;;;9.00;76.60;;;;;;5032320;28;20691;-76
2021/04/17 00:45:57;;;;;;;11.60;10.40;;;9.00;78.00;;;;;;5031832;28;20533;-76
2021/04/17 00:48:23;;;;;;;10.90;9.90;;;9.00;78.30;;;;;;5030647;28;20392;-76
2021/04/17 00:50:49;;;;;;;12.00;9.90;;;9.00;78.40;;;;;;5031002;28;20424;-77
2021/04/17 00:53:16;;;;;;;12.53;10.10;;;8.90;78.50;;;;;;5031756;28;20395;-76
2021/04/17 00:55:42;;;;;;;11.30;10.30;;;8.90;78.60;;;;;;5031983;28;20221;-76
2021/04/17 00:58:08;;;;;;;10.50;9.50;;;9.00;79.20;;;;;;5031461;28;20427;-76
2021/04/17 01:00:36;;;;;;;11.27;9.47;;;8.90;79.40;;;;;;5031607;28;20417;-76
2021/04/17 01:03:46;;;;;;;12.17;9.90;;;8.90;79.00;;;;;;5031298;28;20383;-76
2021/04/17 01:06:29;;;;;;;10.37;8.80;;;8.90;79.40;;;;;;5015285;28;20858;-76
2021/04/17 01:09:00;;;;;;;11.10;9.90;;;8.90;79.40;;;;;;5031285;28;20512;-77
2021/04/17 01:11:34;;;;;;;10.80;9.80;;;8.90;79.20;;;;;;5031813;28;20396;-76
2021/04/17 01:14:01;;;;;;;10.30;9.33;;;9.00;79.70;;;;;;5031160;28;20773;-76
2021/04/17 01:16:27;;;;;;;9.80;8.90;;;8.90;79.30;;;;;;5031918;28;21021;-76
2021/04/17 01:18:54;;;;;;;11.27;9.93;;;8.90;79.20;;;;;;5030985;28;20455;-78
2021/04/17 01:21:22;;;;;;;10.03;9.00;;;8.80;76.10;;;;;;5031458;28;20942;-75
2021/04/17 01:23:54;;;;;;;10.40;8.90;;;8.80;74.10;;;;;;5031896;28;20495;-75
2021/04/17 01:26:22;;;;;;;10.87;9.23;;;8.70;73.20;;;;;;5031321;28;20445;-75
2021/04/17 01:28:50;;;;;;;12.90;10.00;;;8.70;73.10;;;;;;5017957;28;20523;-74
2021/04/17 01:31:18;;;;;;;10.30;9.23;;;8.80;72.60;;;;;;5011641;28;20409;-75
2021/04/17 01:33:47;;;;;;;9.97;8.97;;;8.80;74.30;;;;;;5011913;28;20450;-76
2021/04/17 01:36:15;;;;;;;10.87;9.10;;;8.80;73.20;;;;;;5011143;28;20481;-76
2021/04/17 01:39:04;;;;;;;10.17;9.23;;;8.80;72.20;;;;;;5027285;28;20428;-75
2021/04/17 01:41:34;;;;;;;11.27;8.00;;;8.70;72.00;;;;;;5031467;28;20406;-76
2021/04/17 01:44:04;;;;;;;9.43;8.43;;;8.70;72.70;;;;;;5030889;28;20401;-76
2021/04/17 01:46:35;;;;;;;10.53;9.43;;;8.70;72.90;;;;;;5031709;28;20445;-76
2021/04/17 01:49:03;;;;;;;9.93;8.93;;;8.70;73.40;;;;;;5030049;28;20412;-76
2021/04/17 01:51:32;;;;;;;10.87;9.40;;;8.70;72.70;;;;;;5031623;28;20445;-76
2021/04/17 01:54:03;;;;;;;10.93;9.83;;;8.70;73.00;;;;;;5030949;28;20864;-76
2021/04/17 01:56:30;;;;;;;10.70;9.60;;;8.70;73.00;;;;;;5031723;28;20420;-76
2021/04/17 01:58:58;;;;;;;11.30;10.13;;;8.80;73.60;;;;;;5030046;28;20440;-77
2021/04/17 02:01:24;;;;;;;11.07;8.73;;;8.80;73.80;;;;;;5031718;28;20479;-76
2021/04/17 02:03:50;;;;;;;10.80;9.80;;;8.90;74.00;;;;;;5034749;28;20413;-76
2021/04/17 02:06:16;;;;;;;10.13;9.10;;;9.00;74.10;;;;;;5034313;28;20462;-76
2021/04/17 02:08:42;;;;;;;11.70;9.30;;;9.00;74.30;;;;;;5035066;28;20849;-76
2021/04/17 02:11:08;;;;;;;11.73;9.93;;;8.90;76.00;;;;;;5033739;28;20522;-75
2021/04/17 02:13:36;;;;;;;10.40;9.50;;;8.80;76.00;;;;;;5034728;28;20780;-75
2021/04/17 02:16:13;;;;;;;10.37;9.37;;;8.80;75.70;;;;;;5034055;28;20417;-76
2021/04/17 02:19:07;;;;;;;14.20;9.00;;;8.70;75.00;;;;;;5034631;28;20443;-75
2021/04/17 02:21:42;;;;;;;11.50;9.50;;;8.60;75.00;;;;;;5034330;28;20432;-75
2021/04/17 02:24:08;;;;;;;10.13;9.07;;;8.60;75.70;;;;;;5034088;28;20370;-76
2021/04/17 02:26:36;;;;;;;10.30;9.00;;;8.50;75.80;;;;;;5034208;28;20471;-75
2021/04/17 02:29:02;;;;;;;10.67;9.60;;;8.40;75.70;;;;;;5033948;28;20435;-76
2021/04/17 02:31:29;;;;;;;10.73;9.60;;;8.40;76.40;;;;;;5034386;28;20482;-76
2021/04/17 02:33:56;;;;;;;10.40;9.40;;;8.30;76.80;;;;;;5033879;28;20453;-77
2021/04/17 02:36:23;;;;;;;13.57;10.10;;;8.30;77.00;;;;;;5032798;28;20977;-75
2021/04/17 02:38:49;;;;;;;11.10;9.50;;;8.30;77.10;;;;;;5033964;28;20946;-75
2021/04/17 02:41:15;;;;;;;10.60;9.60;;;8.20;77.20;;;;;;5034025;28;20425;-76
2021/04/17 02:43:42;;;;;;;10.87;9.80;;;8.20;77.00;;;;;;5016450;28;20425;-75
2021/04/17 02:46:09;;;;;;;10.00;9.00;;;8.10;76.70;;;;;;5014347;28;20789;-76
2021/04/17 02:48:35;;;;;;;10.57;9.00;;;8.10;77.00;;;;;;5025080;28;20431;-76
2021/04/17 02:51:01;;;;;;;11.07;9.13;;;8.10;76.90;;;;;;5033524;28;20764;-76
2021/04/17 02:53:26;;;;;;;9.80;8.90;;;8.00;77.20;;;;;;5034228;28;20383;-76
2021/04/17 02:55:52;;;;;;;10.80;9.60;;;8.00;77.20;;;;;;5033944;28;20275;-76
2021/04/17 02:58:18;;;;;;;11.90;9.53;;;8.00;77.30;;;;;;5033393;28;20208;-76
2021/04/17 03:00:44;;;;;;;11.33;9.60;;;7.90;77.60;;;;;;5022647;28;20909;-76
2021/04/17 03:03:09;;;;;;;10.83;9.73;;;7.90;77.90;;;;;;5012351;28;20185;-76
2021/04/17 03:05:35;;;;;;;10.37;9.30;;;7.90;77.90;;;;;;5014620;28;20292;-76
2021/04/17 03:08:01;;;;;;;10.27;9.17;;;7.80;77.90;;;;;;5013133;28;20223;-80
2021/04/17 03:10:27;;;;;;;12.50;10.00;;;7.80;78.00;;;;;;5015302;28;20454;-81
2021/04/17 03:12:53;;;;;;;10.77;9.67;;;7.70;78.00;;;;;;5026120;28;20246;-81
2021/04/17 03:15:18;;;;;;;10.20;9.20;;;7.70;78.10;;;;;;5013323;28;20382;-81
2021/04/17 03:17:44;;;;;;;12.40;11.30;;;7.60;78.30;;;;;;5014343;28;20506;-80
2021/04/17 03:20:11;;;;;;;11.03;9.77;;;7.60;78.80;;;;;;5013070;28;20211;-80
2021/04/17 03:22:37;;;;;;;10.53;9.43;;;7.60;79.00;;;;;;5014125;28;20234;-79
2021/04/17 03:25:07;;;;;;;10.80;9.70;;;7.50;79.00;;;;;;5013164;28;20390;-80
2021/04/17 03:27:33;;;;;;;10.17;9.20;;;7.50;79.30;;;;;;5013876;28;20475;-79
2021/04/17 03:29:59;;;;;;;10.20;9.30;;;7.50;80.00;;;;;;5033017;28;20423;-81
2021/04/17 03:32:24;;;;;;;9.50;8.60;;;7.40;79.90;;;;;;5033260;28;20931;-81
2021/04/17 03:34:50;;;;;;;10.47;9.40;;;7.30;79.70;;;;;;5031906;28;20547;-82
2021/04/17 03:37:16;;;;;;;10.80;9.70;;;7.30;80.10;;;;;;5032080;28;20193;-78
2021/04/17 03:39:42;;;;;;;11.60;10.13;;;7.30;80.30;;;;;;5031812;28;20411;-78
2021/04/17 03:42:08;;;;;;;12.27;10.13;;;7.20;80.60;;;;;;5012835;28;20180;-78
2021/04/17 03:44:33;;;;;;;10.27;9.23;;;7.10;81.00;;;;;;5024746;28;20266;-78
2021/04/17 03:46:59;;;;;;;10.67;9.43;;;7.10;81.40;;;;;;5033057;28;20437;-78
2021/04/17 03:49:25;;;;;;;10.33;9.33;;;7.10;81.30;;;;;;5032512;28;20173;-78
2021/04/17 03:51:51;;;;;;;10.17;9.13;;;7.10;81.70;;;;;;5033241;28;20882;-78
2021/04/17 03:54:16;;;;;;;12.50;9.87;;;7.10;82.00;;;;;;5031141;28;20211;-76
2021/04/17 03:56:42;;;;;;;10.67;9.57;;;7.00;82.10;;;;;;5032717;28;20194;-76
2021/04/17 03:59:08;;;;;;;10.73;9.63;;;7.00;82.40;;;;;;5032226;28;20498;-78
2021/04/17 04:01:33;;;;;;;10.43;9.33;;;7.00;82.20;;;;;;5032501;28;20630;-76
2021/04/17 04:04:01;;;;;;;12.67;10.60;;;7.00;82.30;;;;;;5032520;28;20650;-78
2021/04/17 04:06:26;;;;;;;10.50;9.40;;;7.00;82.80;;;;;;5032393;28;20200;-76
2021/04/17 04:08:52;;;;;;;13.57;10.40;;;7.00;83.00;;;;;;5032954;28;20393;-76
2021/04/17 04:11:18;;;;;;;9.83;8.93;;;6.90;82.70;;;;;;5031515;28;20925;-76
2021/04/17 04:13:44;;;;;;;9.87;8.97;;;6.90;82.90;;;;;;5032761;28;20261;-77
2021/04/17 04:16:10;;;;;;;10.43;9.47;;;7.00;83.00;;;;;;5031749;28;20628;-77
2021/04/17 04:18:35;;;;;;;10.20;9.20;;;7.00;82.90;;;;;;5032772;28;20468;-77
2021/04/17 04:21:01;;;;;;;10.57;9.60;;;7.00;82.70;;;;;;5031063;28;20185;-78
2021/04/17 04:23:27;;;;;;;10.67;8.90;;;7.00;82.80;;;;;;5032203;28;20225;-76
2021/04/17 04:25:53;;;;;;;10.30;9.13;;;6.90;82.80;;;;;;5032622;28;20413;-75
2021/04/17 04:28:19;;;;;;;11.00;9.07;;;6.90;83.70;;;;;;5031689;28;20237;-76
2021/04/17 04:30:45;;;;;;;10.20;9.30;;;6.90;83.00;;;;;;5032284;28;20179;-77
2021/04/17 04:33:11;;;;;;;10.77;9.13;;;6.80;83.10;;;;;;5031748;28;20214;-76
2021/04/17 04:35:36;;;;;;;10.20;9.27;;;6.80;83.30;;;;;;5031902;28;20478;-75
2021/04/17 04:38:02;;;;;;;9.50;8.70;;;6.80;83.70;;;;;;5032114;28;20434;-77
2021/04/17 04:40:28;;;;;;;10.47;8.93;;;6.80;84.00;;;;;;5031771;28;20203;-78
2021/04/17 04:42:54;;;;;;;9.80;8.80;;;6.80;84.20;;;;;;5031786;28;20175;-77
2021/04/17 04:45:19;;;;;;;10.73;8.63;;;6.70;84.20;;;;;;5031031;28;20628;-76
2021/04/17 04:47:45;;;;;;;9.93;8.90;;;6.80;84.40;;;;;;5032265;28;20226;-77
2021/04/17 04:50:12;;;;;;;10.10;9.10;;;6.80;84.50;;;;;;5031301;28;20229;-76
2021/04/17 04:52:38;;;;;;;11.87;10.17;;;6.70;84.50;;;;;;5032224;28;20376;-76
2021/04/17 04:55:05;;;;;;;12.13;10.40;;;6.70;84.40;;;;;;5031587;28;20417;-76
2021/04/17 04:57:31;;;;;;;10.20;9.15;;;6.70;84.50;;;;;;5031744;28;20193;-78
2021/04/17 04:59:57;;;;;;;12.30;10.80;;;6.70;84.70;;;;;;5030587;28;20258;-77
2021/04/17 05:02:22;;;;;;;12.80;9.23;;;6.70;84.50;;;;;;5031046;28;20672;-78
2021/04/17 05:04:48;;;;;;;11.30;9.90;;;6.70;84.80;;;;;;5031817;28;20186;-76
2021/04/17 05:07:14;;;;;;;10.47;9.40;;;6.80;85.00;;;;;;5031193;28;20289;-77
2021/04/17 05:09:39;;;;;;;10.73;9.60;;;6.70;84.50;;;;;;5032319;28;20187;-76
2021/04/17 05:12:06;;;;;;;11.23;9.83;;;6.80;85.20;;;;;;5031587;28;20202;-78
2021/04/17 05:14:31;;;;;;;10.63;9.05;;;6.80;85.00;;;;;;5031499;28;20193;-77
2021/04/17 05:16:57;;;;;;;13.30;9.83;;;6.70;84.30;;;;;;5032092;28;20186;-77
2021/04/17 05:19:24;;;;;;;11.43;10.20;;;6.70;84.70;;;;;;5030618;28;20172;-77
2021/04/17 05:21:50;;;;;;;10.88;9.30;;;6.70;85.70;;;;;;5031942;28;20183;-77
2021/04/17 05:24:16;;;;;;;10.30;9.27;;;6.80;85.70;;;;;;5031135;28;20259;-78
2021/04/17 05:26:42;;;;;;;10.77;9.47;;;6.80;85.70;;;;;;5031537;28;20206;-77
2021/04/17 05:29:07;;;;;;;9.07;8.17;;;6.80;85.70;;;;;;5031213;28;20193;-78
2021/04/17 05:31:35;;;;;;;10.10;9.10;;;6.80;85.50;;;;;;5031382;28;20187;-77
2021/04/17 05:34:01;;;;;;;10.00;8.95;;;6.90;85.40;;;;;;5031770;28;20238;-77
2021/04/17 05:36:27;;;;;;;14.20;9.00;;;6.90;85.30;;;;;;5031681;28;20233;-75
2021/04/17 05:38:53;;;;;;;12.40;10.07;;;6.90;85.40;;;;;;5035405;28;20524;-75
2021/04/17 05:41:20;;;;;;;11.60;9.27;;;7.00;85.10;;;;;;5050222;28;20170;-75
2021/04/17 05:43:46;;;;;;;9.87;8.97;;;7.10;85.10;;;;;;5034217;28;20179;-75
2021/04/17 05:46:12;;;;;;;10.47;9.03;;;7.10;85.00;;;;;;5034657;28;20450;-75
2021/04/17 05:48:38;;;;;;;10.47;8.20;;;7.20;84.80;;;;;;5035430;28;20815;-75
2021/04/17 05:51:04;;;;;;;13.33;9.27;;;7.20;85.40;;;;;;5035521;28;20399;-75
2021/04/17 05:53:30;;;;;;;10.17;8.90;;;7.30;85.80;;;;;;5034320;28;20904;-75
2021/04/17 05:55:56;;;;;;;11.57;10.07;;;7.30;85.70;;;;;;5035114;28;20380;-74
2021/04/17 05:58:21;;;;;;;11.23;10.20;;;7.40;85.90;;;;;;5034281;28;20207;-75
2021/04/17 06:00:47;;;;;;;12.40;10.87;;;7.40;85.50;;;;;;5034876;28;20180;-75
2021/04/17 06:03:12;;;;;;;12.63;11.27;;;7.50;85.80;;;;;;5034378;28;20176;-76
2021/04/17 06:05:38;;;;;;;12.23;10.70;;;7.50;86.00;;;;;;5034576;28;20178;-82
2021/04/17 06:08:05;;;;;;;13.97;10.73;;;7.60;85.80;;;;;;5035090;28;20216;-83
2021/04/17 06:10:30;;;;;;;15.43;11.93;;;7.60;85.70;;;;;;5033824;28;20212;-80
2021/04/17 06:12:56;;;;;;;12.37;11.17;;;7.70;85.80;;;;;;5035035;28;20431;-77
2021/04/17 06:15:24;;;;;;;14.10;11.13;;;7.70;85.70;;;;;;5033926;28;20216;-81
2021/04/17 06:17:49;;;;;;;13.30;11.80;;;8.00;95.60;;;;;;5035082;28;20534;-81
2021/04/17 06:20:15;;;;;;;17.07;12.17;;;8.50;98.60;;;;;;5034277;28;20392;-82
2021/04/17 06:22:41;;;;;;;13.83;11.53;;;8.80;96.80;;;;;;5034669;28;20177;-81
2021/04/17 06:25:08;;;;;;;15.23;12.07;;;9.10;93.70;;;;;;5034271;28;20173;-80
2021/04/17 06:27:34;;;;;;;13.67;11.70;;;9.30;91.20;;;;;;5033058;28;20198;-87
2021/04/17 06:30:01;;;;;;;14.77;12.70;;;9.60;90.10;;;;;;5034788;28;20421;-78
2021/04/17 06:32:26;;;;;;;13.70;12.30;;;9.80;87.50;;;;;;5033676;28;20174;-78
2021/04/17 06:34:52;;;;;;;15.97;11.43;;;9.90;85.80;;;;;;5033803;28;20465;-79
2021/04/17 06:37:18;;;;;;;15.07;13.07;;;10.00;82.70;;;;;;5033872;28;20630;-79
2021/04/17 06:39:43;;;;;;;14.83;12.73;;;10.10;81.40;;;;;;5034277;28;20179;-79
2021/04/17 06:42:12;;;;;;;17.60;13.30;;;10.20;81.90;;;;;;5034297;28;20568;-79
2021/04/17 06:44:41;;;;;;;14.30;12.63;;;10.30;81.30;;;;;;5034179;28;20186;-78
2021/04/17 06:47:12;;;;;;;14.93;11.17;;;10.40;80.90;;;;;;5034253;28;20449;-78
2021/04/17 06:49:39;;;;;;;15.53;12.40;;;10.50;80.50;;;;;;5033125;28;20464;-78
2021/04/17 06:52:06;;;;;;;12.50;11.20;;;10.50;78.60;;;;;;5034139;28;20579;-78
2021/04/17 06:54:33;;;;;;;14.83;13.10;;;10.60;79.30;;;;;;5027716;28;20497;-77
2021/04/17 06:56:58;;;;;;;15.60;12.80;;;10.70;78.80;;;;;;5034146;28;20405;-78
2021/04/17 06:59:24;;;;;;;13.20;10.77;;;10.70;77.30;;;;;;5032839;28;20419;-78
2021/04/17 07:01:50;;;;;;;13.73;12.33;;;10.60;76.70;;;;;;5034054;28;20179;-78
2021/04/17 07:04:16;;;;;;;13.40;11.03;;;10.60;76.60;;;;;;5031812;28;20421;-78
2021/04/17 07:06:43;;;;;;;13.33;11.93;;;10.50;76.80;;;;;;5033812;28;20553;-80
2021/04/17 07:09:09;;;;;;;12.43;11.13;;;10.50;77.40;;;;;;5034688;28;20420;-81
2021/04/17 07:11:35;;;;;;;11.10;10.03;;;10.40;77.90;;;;;;5033604;28;20852;-77
2021/04/17 07:14:16;;;;;;;11.07;9.97;;;10.40;78.20;;;;;;5032503;28;20484;-80
2021/04/17 07:17:02;;;;;;;14.93;10.00;;;10.40;77.40;;;;;;5026919;28;20435;-80
2021/04/17 07:19:46;;;;;;;10.73;9.63;;;10.40;76.80;;;;;;5032001;28;20544;-75
2021/04/17 07:22:15;;;;;;;11.40;9.53;;;10.40;76.90;;;;;;5030674;28;20429;-77
2021/04/17 07:24:41;;;;;;;13.40;9.90;;;10.40;78.70;;;;;;5033865;28;20429;-89
2021/04/17 07:27:07;;;;;;;12.57;10.33;;;10.40;78.20;;;;;;5017209;28;20459;-90
2021/04/17 07:29:43;;;;;;;12.20;9.70;;;10.40;77.70;;;;;;5027936;28;20206;-86
2021/04/17 07:32:18;;;;;;;14.80;10.53;;;10.50;78.30;;;;;;5033094;28;20186;-85
2021/04/17 07:35:03;;;;;;;12.03;10.70;;;10.40;77.20;;;;;;5032821;28;20516;-85
2021/04/17 07:37:29;;;;;;;10.33;9.23;;;10.40;77.60;;;;;;5029868;28;20769;-84
2021/04/17 07:39:55;;;;;;;10.00;9.03;;;10.50;79.10;;;;;;5023003;28;20427;-84
2021/04/17 07:42:34;;;;;;;11.30;9.83;;;10.50;77.80;;;;;;5031882;28;20988;-83
2021/04/17 07:44:59;;;;;;;11.13;10.03;;;10.40;76.90;;;;;;5011637;28;20187;-83
2021/04/17 07:47:33;;;;;;;11.40;10.00;;;10.50;78.30;;;;;;5012115;28;20462;-83
2021/04/17 07:50:04;;;;;;;11.53;9.40;;;10.60;79.50;;;;;;5023828;28;20190;-83
2021/04/17 07:52:34;;;;;;;10.53;9.43;;;10.70;77.70;;;;;;5031742;28;20421;-86
2021/04/17 07:54:59;;;;;;;11.70;9.00;;;10.80;77.60;;;;;;5032447;28;20384;-82
2021/04/17 07:57:33;;;;;;;9.47;8.57;;;10.90;77.90;;;;;;5013900;28;20452;-83
2021/04/17 07:59:59;;;;;;;8.63;7.37;;;11.00;75.10;;;;;;5032072;28;20212;-83
2021/04/17 08:02:26;;;;;;;10.17;9.17;;;11.10;75.20;;;;;;5031286;28;20506;-84
2021/04/17 08:04:53;;;;;;;10.83;9.83;;;11.30;75.30;;;;;;5023003;28;20421;-85
2021/04/17 08:07:20;;;;;;;10.17;9.17;;;11.40;77.60;;;;;;5031600;28;20946;-84
2021/04/17 08:09:47;;;;;;;8.23;7.43;;;11.50;77.00;;;;;;5047728;28;20439;-84
2021/04/17 08:12:16;;;;;;;9.23;8.37;;;11.60;76.50;;;;;;5031239;28;20986;-84
2021/04/17 08:14:42;;;;;;;8.13;7.40;;;11.60;75.60;;;;;;5032749;28;20969;-83
2021/04/17 08:17:09;;;;;;;8.80;7.53;;;11.70;75.70;;;;;;5031403;28;20453;-83
2021/04/17 08:19:35;;;;;;;8.83;7.93;;;11.80;75.10;;;;;;5031606;28;20784;-83
2021/04/17 08:22:01;;;;;;;10.97;8.47;;;12.00;72.90;;;;;;5032333;28;20499;-83
2021/04/17 08:24:29;;;;;;;8.50;7.60;;;12.10;73.30;;;;;;5031324;28;20254;-83
2021/04/17 08:27:02;;;;;;;10.10;8.77;;;12.20;71.70;;;;;;5031556;28;20248;-83
2021/04/17 08:29:46;;;;;;;8.73;7.83;;;12.30;70.90;;;;;;5030498;28;20795;-84
2021/04/17 08:32:40;;;;;;;9.77;8.83;;;12.20;72.30;;;;;;5032068;28;20754;-84
2021/04/17 08:35:09;;;;;;;9.50;8.60;;;12.30;71.00;;;;;;5030277;28;20499;-83
2021/04/17 08:37:55;;;;;;;8.63;7.03;;;12.30;72.40;;;;;;5029470;28;21117;-83
2021/04/17 08:40:36;;;;;;;7.70;6.90;;;12.30;72.70;;;;;;5043376;28;20420;-83
2021/04/17 08:43:18;;;;;;;8.93;6.70;;;12.40;72.40;;;;;;5030801;28;20924;-84
2021/04/17 08:46:08;;;;;;;7.60;6.80;;;12.50;73.50;;;;;;5012861;28;20410;-84
2021/04/17 08:48:56;;;;;;;7.60;6.40;;;12.60;73.50;;;;;;5011816;28;20550;-84
2021/04/17 08:51:22;;;;;;;7.17;6.40;;;12.70;72.40;;;;;;5028415;28;20459;-84
2021/04/17 08:54:00;;;;;;;8.23;6.73;;;12.80;73.20;;;;;;5029535;28;20939;-83
2021/04/17 08:56:52;;;;;;;9.20;6.63;;;12.90;72.90;;;;;;5043228;28;20181;-80
2021/04/17 08:59:22;;;;;;;6.90;6.30;;;12.90;68.10;;;;;;5028254;28;20417;-80
2021/04/17 09:01:48;;;;;;;7.07;6.37;;;12.90;67.80;;;;;;5029428;28;20908;-86
2021/04/17 09:04:15;;;;;;;7.70;6.60;;;13.00;67.50;;;;;;5018543;28;20417;-87
2021/04/17 09:06:49;;;;;;;7.90;7.17;;;13.00;67.70;;;;;;5010767;28;20475;-79
2021/04/17 09:09:15;;;;;;;8.73;6.33;;;12.90;67.00;;;;;;5031881;28;20408;-79
2021/04/17 09:11:51;;;;;;;7.00;6.20;;;12.90;65.50;;;;;;5031415;28;20473;-80
2021/04/17 09:14:26;;;;;;;7.60;6.90;;;13.00;66.50;;;;;;5035757;28;20169;-81
2021/04/17 09:16:52;;;;;;;8.47;5.93;;;13.00;67.50;;;;;;5034883;28;20450;-86
2021/04/17 09:19:48;;;;;;;7.40;6.17;;;13.00;67.70;;;;;;5031526;28;20846;-83
2021/04/17 09:22:26;;;;;;;6.73;6.00;;;13.00;68.40;;;;;;5031683;28;20420;-81
2021/04/17 09:25:07;;;;;;;9.20;6.30;;;13.00;68.00;;;;;;5035262;28;20440;-80
2021/04/17 09:27:37;;;;;;;9.93;6.73;;;13.10;68.80;;;;;;5033713;28;20452;-83
2021/04/17 09:30:07;;;;;;;6.87;6.27;;;13.20;67.60;;;;;;5034228;28;20438;-85
2021/04/17 09:32:51;;;;;;;6.60;6.00;;;13.20;68.20;;;;;;5033175;28;20421;-85
2021/04/17 09:35:22;;;;;;;6.17;5.57;;;13.30;70.90;;;;;;5035159;28;20467;-85
2021/04/17 09:37:54;;;;;;;5.30;4.90;;;13.30;68.00;;;;;;5035755;28;20425;-84
2021/04/17 09:40:31;;;;;;;5.97;5.50;;;13.40;68.80;;;;;;5035191;28;20738;-84
2021/04/17 09:42:58;;;;;;;5.10;4.60;;;13.50;72.10;;;;;;5035689;28;20411;-84
2021/04/17 09:45:39;;;;;;;5.80;5.30;;;13.80;69.70;;;;;;5034688;28;20418;-84
2021/04/17 09:48:07;;;;;;;6.07;5.57;;;13.90;68.20;;;;;;5035278;28;20866;-84
2021/04/17 09:50:34;;;;;;;5.70;5.30;;;14.00;67.80;;;;;;5049687;28;20411;-83
2021/04/17 09:53:22;;;;;;;6.10;5.50;;;14.10;68.10;;;;;;5017783;28;20486;-83
2021/04/17 09:55:54;;;;;;;5.80;5.30;;;14.20;68.30;;;;;;5036112;28;20416;-83
2021/04/17 09:58:25;;;;;;;119.87;91.23;;;14.30;64.70;;;;;;5038946;28;20458;-84
2021/04/17 10:00:55;;;;;;;64.10;53.47;;;14.30;65.90;;;;;;5050218;28;20420;-84
2021/04/17 10:03:32;;;;;;;8.93;7.10;;;14.30;63.00;;;;;;5050803;28;20453;-83
2021/04/17 10:05:59;;;;;;;5.53;5.10;;;14.20;62.70;;;;;;5034920;28;20403;-88
2021/04/17 10:08:35;;;;;;;5.97;5.40;;;14.10;63.00;;;;;;5033418;28;20973;-82
2021/04/17 10:11:03;;;;;;;6.73;6.00;;;14.10;65.10;;;;;;5035563;28;20845;-85
2021/04/17 10:13:48;;;;;;;7.00;6.27;;;14.10;66.20;;;;;;5033957;28;20415;-84
2021/04/17 10:16:22;;;;;;;6.77;5.50;;;14.00;63.60;;;;;;5034789;28;20463;-85
2021/04/17 10:18:48;;;;;;;6.60;6.00;;;14.10;64.30;;;;;;5034511;28;20398;-85
2021/04/17 10:21:14;;;;;;;6.17;5.57;;;14.00;64.80;;;;;;5028205;28;20410;-85
2021/04/17 10:23:40;;;;;;;6.90;6.30;;;13.90;65.30;;;;;;5017983;28;20564;-85
2021/04/17 10:26:08;;;;;;;7.33;5.80;;;13.80;64.20;;;;;;5020275;28;20406;-85
2021/04/17 10:28:34;;;;;;;5.30;4.90;;;13.70;65.80;;;;;;5020553;28;20212;-85
2021/04/17 10:31:18;;;;;;;6.57;5.77;;;13.60;64.40;;;;;;5020891;28;20417;-86
2021/04/17 10:33:48;;;;;;;6.57;5.97;;;13.70;64.50;;;;;;5017159;28;20563;-85
2021/04/17 10:36:20;;;;;;;40.47;30.10;;;13.50;63.90;;;;;;5016126;28;20748;-87
2021/04/17 10:38:46;;;;;;;71.10;50.80;;;13.60;64.20;;;;;;5030489;28;20440;-86
2021/04/17 10:41:29;;;;;;;12.10;10.00;;;13.60;65.90;;;;;;5035472;28;20447;-85
2021/04/17 10:44:09;;;;;;;6.73;6.20;;;13.70;67.40;;;;;;5035172;28;20439;-88
2021/04/17 10:46:44;;;;;;;7.10;6.00;;;13.70;66.10;;;;;;5036807;28;20413;-88
2021/04/17 10:49:10;;;;;;;7.07;6.37;;;13.70;65.70;;;;;;5035867;28;20774;-90
2021/04/17 10:51:38;;;;;;;10.27;6.77;;;13.80;65.70;;;;;;5034616;28;20431;-90
2021/04/17 10:54:49;;;;;;;7.73;7.03;;;13.80;64.70;;;;;;5034643;28;20492;-91
2021/04/17 10:57:14;;;;;;;7.20;6.53;;;13.70;64.60;;;;;;5022661;28;20432;-90
2021/04/17 11:00:09;;;;;;;7.70;6.20;;;13.60;63.30;;;;;;5049784;28;20415;-90
2021/04/17 11:02:35;;;;;;;7.03;6.10;;;13.60;65.30;;;;;;5034553;28;20608;-90
2021/04/17 11:05:05;;;;;;;6.80;5.47;;;13.60;64.90;;;;;;5037154;28;20501;-90
2021/04/17 11:07:37;;;;;;;7.13;6.43;;;13.50;64.70;;;;;;5034043;28;20784;-90
2021/04/17 11:10:08;;;;;;;9.50;6.13;;;13.50;65.70;;;;;;5034354;28;20445;-89
2021/04/17 11:12:37;;;;;;;8.43;6.43;;;13.60;67.30;;;;;;5033762;28;20413;-91
2021/04/17 11:15:33;;;;;;;7.10;6.37;;;13.60;65.10;;;;;;5019906;28;20435;-90
2021/04/17 11:18:16;;;;;;;7.13;5.03;;;13.60;64.10;;;;;;5009704;28;20433;-88
2021/04/17 11:20:58;;;;;;;9.10;5.80;;;13.60;63.30;;;;;;5013664;28;20476;-90
2021/04/17 11:23:36;;;;;;;88.83;62.27;;;13.60;62.50;;;;;;5012815;28;20408;-86
2021/04/17 11:26:12;;;;;;;79.20;56.67;;;13.60;64.80;;;;;;5014204;28;20414;-90
2021/04/17 11:28:41;;;;;;;8.50;5.60;;;13.70;66.30;;;;;;5012226;28;20953;-89
2021/04/17 11:31:08;;;;;;;5.30;4.80;;;13.70;62.60;;;;;;5014356;28;20485;-90
2021/04/17 11:33:34;;;;;;;6.17;5.00;;;13.90;64.40;;;;;;5028421;28;20451;-91
2021/04/17 11:36:02;;;;;;;6.10;4.97;;;14.00;64.30;;;;;;5028546;28;20433;-83
2021/04/17 11:38:30;;;;;;;5.63;4.73;;;14.20;64.20;;;;;;5011530;28;20819;-83
2021/04/17 11:40:56;;;;;;;5.40;4.80;;;14.20;59.20;;;;;;5013803;28;20421;-81
2021/04/17 11:43:22;;;;;;;5.60;4.40;;;14.20;57.60;;;;;;5013562;28;20420;-81
2021/04/17 11:45:49;;;;;;;4.73;4.27;;;14.20;54.60;;;;;;5012824;28;20421;-81
2021/04/17 11:48:15;;;;;;;4.80;4.10;;;14.10;54.10;;;;;;5012236;28;20212;-82
2021/04/17 11:50:41;;;;;;;5.27;4.20;;;14.10;54.30;;;;;;5011534;28;20597;-82
2021/04/17 11:53:08;;;;;;;4.80;4.40;;;14.00;55.30;;;;;;5013408;28;20413;-83
2021/04/17 11:55:34;;;;;;;5.80;4.50;;;13.90;52.20;;;;;;5011738;28;20181;-83
2021/04/17 11:58:00;;;;;;;5.10;4.70;;;13.90;52.90;;;;;;5012183;28;20838;-82
2021/04/17 12:00:26;;;;;;;5.77;5.27;;;13.90;54.70;;;;;;5013422;28;20454;-83
2021/04/17 12:02:52;;;;;;;4.97;4.50;;;13.90;54.90;;;;;;5013021;28;20194;-83
2021/04/17 12:05:20;;;;;;;7.60;5.00;;;13.90;55.80;;;;;;5028817;28;20403;-81
2021/04/17 12:07:46;;;;;;;4.63;4.23;;;13.80;55.40;;;;;;5012587;28;20716;-83
2021/04/17 12:10:13;;;;;;;4.87;4.47;;;13.80;55.80;;;;;;5013497;28;20414;-82
2021/04/17 12:12:38;;;;;;;5.60;4.87;;;13.70;55.50;;;;;;5012379;28;20639;-83
2021/04/17 12:15:05;;;;;;;4.57;4.17;;;13.80;55.50;;;;;;5028034;28;20434;-81
2021/04/17 12:17:32;;;;;;;5.60;4.77;;;13.80;55.60;;;;;;5010924;28;20233;-83
2021/04/17 12:19:59;;;;;;;5.33;4.80;;;13.60;56.80;;;;;;5028258;28;20435;-81
2021/04/17 12:22:26;;;;;;;8.43;4.90;;;13.70;58.50;;;;;;5042498;28;20492;-81
2021/04/17 12:24:52;;;;;;;7.97;5.80;;;13.70;58.00;;;;;;5037410;28;20418;-81
2021/04/17 12:27:18;;;;;;;6.30;4.83;;;13.80;57.90;;;;;;5011604;28;20464;-81
2021/04/17 12:29:45;;;;;;;4.60;4.20;;;13.70;57.20;;;;;;5028434;28;20422;-81
2021/04/17 12:32:12;;;;;;;5.63;4.87;;;13.70;56.30;;;;;;5021756;28;20414;-81
2021/04/17 12:34:38;;;;;;;5.53;4.80;;;13.80;56.30;;;;;;5027811;28;20553;-82
2021/04/17 12:37:04;;;;;;;5.40;4.57;;;13.70;56.70;;;;;;5043471;28;20418;-81
2021/04/17 12:39:30;;;;;;;4.53;3.70;;;13.70;55.80;;;;;;5028257;28;20183;-84
2021/04/17 12:41:55;;;;;;;4.60;3.77;;;13.70;54.70;;;;;;5047465;28;20510;-82
2021/04/17 12:44:21;;;;;;;4.60;4.20;;;13.70;54.60;;;;;;5032164;28;20637;-83
2021/04/17 12:46:47;;;;;;;6.07;4.20;;;13.60;54.20;;;;;;5045782;28;20299;-81
2021/04/17 12:49:13;;;;;;;4.00;3.70;;;13.60;54.70;;;;;;5043387;28;20179;-81
2021/04/17 12:51:39;;;;;;;6.20;4.27;;;13.50;55.50;;;;;;5011790;28;20414;-81
2021/04/17 12:54:06;;;;;;;5.13;4.57;;;13.60;55.20;;;;;;5011319;28;20403;-81